Time;durP1;ratioP1;P1;durP2;ratioP2;P2;SDS_P1;SDS_P2;PMS_P1;PMS_P2;Temp;Humidity;BMP_temperature;BMP_pressure;BME280_temperature;BME280_humidity;BME280_pressure;Samples;Min_cycle;Max_cycle;Signal;HPM_P1;HPM_P2
2022/07/13 00:00:27;;;;;;;3.00;0.60;;;;;;;18.84;44.69;99419.96;106150;1274;24255;-84
2022/07/13 00:03:23;;;;;;;2.20;0.70;;;;;;;18.85;44.87;99415.82;106047;1274;25502;-81
2022/07/13 00:06:09;;;;;;;3.10;0.80;;;;;;;18.84;44.89;99413.37;106088;1274;22555;-82
2022/07/13 00:09:08;;;;;;;3.40;0.90;;;;;;;18.87;44.76;99409.00;106279;1274;22554;-82
2022/07/13 00:11:48;;;;;;;2.80;0.60;;;;;;;18.86;44.89;99409.20;106035;1274;25560;-83
2022/07/13 00:14:42;;;;;;;2.90;0.70;;;;;;;18.80;44.88;99409.54;106177;1274;25238;-82
2022/07/13 00:17:18;;;;;;;3.40;0.80;;;;;;;18.75;44.96;99409.05;106041;1274;25457;-82
2022/07/13 00:19:55;;;;;;;2.90;0.80;;;;;;;18.69;45.05;99406.19;105800;1274;23030;-85
2022/07/13 00:22:42;;;;;;;2.90;0.70;;;;;;;18.61;45.06;99413.05;105964;1274;23016;-83
2022/07/13 00:25:35;;;;;;;2.80;0.70;;;;;;;18.50;45.18;99414.04;106094;1274;22573;-83
2022/07/13 00:28:15;;;;;;;3.60;0.80;;;;;;;18.32;45.35;99419.19;106056;1274;22738;-83
2022/07/13 00:30:59;;;;;;;2.90;0.70;;;;;;;18.16;45.40;99418.48;106350;1274;25506;-86
2022/07/13 00:33:37;;;;;;;3.20;0.70;;;;;;;17.99;45.53;99421.39;106357;1274;22554;-81
2022/07/13 00:36:22;;;;;;;5.70;0.90;;;;;;;17.80;45.63;99424.85;106390;1274;25442;-83
2022/07/13 00:39:10;;;;;;;3.80;0.70;;;;;;;17.62;45.95;99424.52;106348;1274;22550;-83
2022/07/13 00:41:58;;;;;;;4.10;1.00;;;;;;;17.47;45.99;99429.43;106252;1274;24272;-82
2022/07/13 00:44:28;;;;;;;3.90;0.80;;;;;;;17.31;46.13;99425.85;106061;1274;22537;-86
2022/07/13 00:47:07;;;;;;;5.30;0.80;;;;;;;17.16;46.24;99426.71;106242;1274;25276;-83
2022/07/13 00:49:37;;;;;;;2.80;0.70;;;;;;;16.98;46.38;99428.55;106120;1274;22711;-84
2022/07/13 00:52:12;;;;;;;2.40;0.70;;;;;;;16.83;46.54;99423.15;106264;1273;22542;-86
2022/07/13 00:54:47;;;;;;;2.50;0.80;;;;;;;16.82;46.66;99423.49;106351;1274;22555;-82
2022/07/13 00:57:28;;;;;;;3.60;0.80;;;;;;;16.78;46.79;99423.60;106112;1274;22619;-84
2022/07/13 01:00:11;;;;;;;3.70;0.70;;;;;;;16.69;46.86;99424.05;106114;1274;22714;-84
2022/07/13 01:02:46;;;;;;;2.70;0.60;;;;;;;16.64;47.07;99421.31;106387;1274;24299;-88
2022/07/13 01:05:26;;;;;;;4.80;0.80;;;;;;;16.67;47.12;99423.02;106063;1274;25339;-82
2022/07/13 01:08:06;;;;;;;5.30;0.80;;;;;;;16.66;47.10;99427.89;106277;1274;25451;-85
2022/07/13 01:10:41;;;;;;;4.10;0.80;;;;;;;16.71;47.16;99429.30;106419;1274;22576;-82
2022/07/13 01:13:13;;;;;;;3.90;0.70;;;;;;;16.77;47.26;99423.91;106116;1275;23147;-82
2022/07/13 01:15:52;;;;;;;3.80;0.80;;;;;;;16.71;47.21;99417.58;106377;1274;24328;-82
2022/07/13 01:18:23;;;;;;;2.90;0.80;;;;;;;16.61;47.22;99417.27;106438;1274;22564;-82
2022/07/13 01:20:51;;;;;;;4.00;0.80;;;;;;;16.49;47.46;99416.72;106246;1274;22534;-83
2022/07/13 01:23:27;;;;;;;3.50;0.60;;;;;;;16.44;47.47;99413.23;106367;1274;22535;-86
2022/07/13 01:26:10;;;;;;;3.80;0.70;;;;;;;16.42;47.59;99413.23;106118;1274;22703;-83
2022/07/13 01:28:44;;;;;;;2.70;0.70;;;;;;;16.38;47.75;99411.57;106093;1274;25352;-82
2022/07/13 01:31:50;;;;;;;2.90;0.80;;;;;;;16.36;47.66;99410.40;106095;1274;25298;-82
2022/07/13 01:34:27;;;;;;;3.30;0.70;;;;;;;16.32;47.68;99411.13;105993;1274;22577;-86
2022/07/13 01:36:57;;;;;;;3.70;0.80;;;;;;;16.28;47.81;99410.02;106080;1274;24444;-82
2022/07/13 01:39:41;;;;;;;3.20;0.80;;;;;;;16.26;47.88;99410.37;106135;1274;22535;-87
2022/07/13 01:42:11;;;;;;;4.50;0.70;;;;;;;16.27;48.02;99409.60;106007;1274;22551;-82
2022/07/13 01:45:04;;;;;;;3.40;0.80;;;;;;;16.24;48.04;99406.95;106253;1273;24330;-83
2022/07/13 01:47:46;;;;;;;3.60;0.60;;;;;;;16.21;48.08;99407.37;106054;1274;22541;-82
2022/07/13 01:50:27;;;;;;;3.60;0.90;;;;;;;16.20;48.10;99408.00;106261;1273;22656;-83
2022/07/13 01:53:04;;;;;;;3.80;0.70;;;;;;;16.18;48.17;99412.34;106115;1274;24296;-84
2022/07/13 01:55:42;;;;;;;2.70;0.70;;;;;;;16.18;48.29;99408.04;106148;1274;24392;-81
2022/07/13 01:58:32;;;;;;;3.00;0.80;;;;;;;16.18;48.37;99408.01;106104;1274;28115;-82
2022/07/13 02:01:08;;;;;;;2.10;0.80;;;;;;;16.20;48.38;99402.98;106083;1274;24304;-84
2022/07/13 02:03:57;;;;;;;3.80;0.80;;;;;;;16.18;48.43;99401.73;106058;1274;24212;-84
2022/07/13 02:06:31;;;;;;;2.90;0.70;;;;;;;16.13;48.53;99404.55;105850;1274;25449;-83
2022/07/13 02:09:08;;;;;;;4.20;0.80;;;;;;;16.08;48.64;99406.21;105797;1274;22718;-84
2022/07/13 02:11:43;;;;;;;3.70;1.00;;;;;;;16.07;48.61;99402.71;105889;1273;25304;-83
2022/07/13 02:14:40;;;;;;;4.80;0.90;;;;;;;16.07;48.67;99399.55;105923;1274;22544;-85
2022/07/13 02:17:22;;;;;;;3.30;0.70;;;;;;;16.08;48.91;99395.42;106100;1274;22543;-83
2022/07/13 02:20:11;;;;;;;3.70;1.00;;;;;;;16.08;48.98;99393.80;105758;1274;25359;-83
2022/07/13 02:22:54;;;;;;;5.40;0.90;;;;;;;16.09;49.01;99390.04;106344;1274;24052;-82
2022/07/13 02:25:31;;;;;;;4.20;0.90;;;;;;;16.07;49.04;99385.81;106061;1274;22618;-86
2022/07/13 02:28:09;;;;;;;2.80;0.80;;;;;;;16.03;49.16;99383.00;106017;1275;24626;-87
2022/07/13 02:30:38;;;;;;;4.90;1.00;;;;;;;16.02;49.20;99381.85;106093;1274;24243;-83
2022/07/13 02:33:25;;;;;;;;;;;;;;;;;;;;;
2022/07/13 02:36:18;;;;;;;5.50;0.80;;;;;;;15.98;49.40;99377.84;106003;1274;25333;-82
2022/07/13 02:39:08;;;;;;;2.80;0.80;;;;;;;15.95;49.49;99376.31;106022;1274;25248;-82
2022/07/13 02:41:51;;;;;;;4.80;0.90;;;;;;;15.90;49.56;99373.86;105957;1273;24666;-82
2022/07/13 02:44:57;;;;;;;4.30;0.80;;;;;;;15.85;49.61;99374.13;106018;1274;22522;-84
2022/07/13 02:47:49;;;;;;;3.40;0.70;;;;;;;15.86;49.64;99375.92;106178;1273;24239;-84
2022/07/13 02:50:39;;;;;;;2.20;0.80;;;;;;;15.86;49.76;99376.73;106059;1274;25430;-83
2022/07/13 02:53:24;;;;;;;3.50;0.60;;;;;;;15.89;49.74;99372.19;106121;1274;25536;-83
2022/07/13 02:56:04;;;;;;;4.70;0.70;;;;;;;15.89;49.91;99372.06;106257;1273;24412;-83
2022/07/13 02:59:05;;;;;;;3.30;0.70;;;;;;;15.87;49.87;99369.36;106002;1274;22553;-85
2022/07/13 03:01:45;;;;;;;2.80;0.80;;;;;;;15.88;50.00;99370.86;106098;1274;23545;-83
2022/07/13 03:04:33;;;;;;;5.70;0.90;;;;;;;15.87;49.93;99373.41;106052;1274;26439;-85
2022/07/13 03:07:11;;;;;;;6.00;1.10;;;;;;;15.87;50.06;99367.49;105965;1274;24244;-82
2022/07/13 03:13:30;;;;;;;3.40;0.90;;;;;;;15.90;50.20;99370.83;106075;1274;24261;-86
2022/07/13 03:16:22;;;;;;;5.60;0.70;;;;;;;15.96;50.27;99375.14;106038;1274;24212;-85
2022/07/13 03:18:55;;;;;;;5.90;0.90;;;;;;;16.03;50.34;99372.93;106064;1274;22535;-84
2022/07/13 03:21:40;;;;;;;;;;;;;;;;;;;;;
2022/07/13 03:24:34;;;;;;;;;;;;;;;;;;;;;
2022/07/13 03:27:26;;;;;;;;;;;;;;;;;;;;;
2022/07/13 03:30:37;;;;;;;3.70;0.90;;;;;;;16.30;50.50;99368.30;106352;1273;24202;-83
2022/07/13 03:33:18;;;;;;;4.30;0.80;;;;;;;16.37;50.47;99366.82;106086;1273;24213;-85
2022/07/13 03:36:15;;;;;;;3.10;0.60;;;;;;;16.43;50.49;99358.70;106114;1274;24065;-83
2022/07/13 03:39:05;;;;;;;4.50;0.80;;;;;;;16.49;50.63;99355.13;106282;1274;22528;-87
2022/07/13 03:41:48;;;;;;;4.80;0.70;;;;;;;16.53;50.63;99351.48;106051;1274;25369;-82
2022/07/13 03:45:08;;;;;;;;;;;;;;;;;;;;;
2022/07/13 03:48:06;;;;;;;3.30;1.00;;;;;;;16.61;50.71;99349.50;106211;1273;22781;-83
2022/07/13 03:55:14;;;;;;;3.60;0.70;;;;;;;16.72;50.78;99343.59;105296;1282;25543;-87
2022/07/13 03:58:05;;;;;;;2.90;0.70;;;;;;;16.76;50.84;99345.08;105330;1283;23916;-83
2022/07/13 04:01:27;;;;;;;3.80;1.00;;;;;;;16.78;50.90;99345.06;105152;1283;22622;-86
2022/07/13 04:04:30;;;;;;;;;;;;;;;;;;;;;
2022/07/13 04:08:39;;;;;;;;;;;;;;;;;;;;;
2022/07/13 04:11:54;;;;;;;3.20;0.80;;;;;;;16.86;50.95;99346.15;105010;1288;24333;-90
2022/07/13 04:14:33;;;;;;;4.20;0.80;;;;;;;16.89;51.09;99348.76;104480;1292;22661;-83
2022/07/13 04:17:09;;;;;;;5.10;0.90;;;;;;;16.90;51.18;99349.83;104445;1291;22620;-84
2022/07/13 04:19:44;;;;;;;5.20;0.80;;;;;;;16.93;51.15;99354.41;104501;1291;22548;-86
2022/07/13 04:22:21;;;;;;;4.10;1.00;;;;;;;16.97;51.22;99350.84;104472;1290;22602;-87
2022/07/13 04:24:57;;;;;;;4.40;1.10;;;;;;;17.01;51.18;99354.34;104526;1290;22655;-86
2022/07/13 04:27:50;;;;;;;;;;;;;;;;;;;;;
2022/07/13 04:31:01;;;;;;;2.50;0.60;;;;;;;17.16;51.26;99358.36;104794;1290;25484;-87
2022/07/13 04:33:37;;;;;;;6.60;0.80;;;;;;;17.24;51.20;99363.90;105126;1285;25673;-88
2022/07/13 04:36:14;;;;;;;3.90;0.90;;;;;;;17.30;51.25;99365.19;105126;1285;22548;-82
2022/07/13 04:38:58;;;;;;;;;;;;;;;;;;;;;
2022/07/13 04:42:18;;;;;;;4.20;0.80;;;;;;;17.41;51.32;99361.61;104900;1285;26471;-84
2022/07/13 04:44:54;;;;;;;5.40;1.00;;;;;;;17.44;51.41;99362.73;105041;1281;23269;-85
2022/07/13 04:51:05;;;;;;;3.10;0.70;;;;;;;17.53;51.43;99355.20;105231;1282;22565;-81
2022/07/13 04:58:51;;;;;;;3.50;0.80;;;;;;;17.64;51.47;99338.71;104246;1294;25258;-81
2022/07/13 05:01:36;;;;;;;4.80;0.60;;;;;;;17.70;51.47;99342.98;103695;1297;25382;-81
2022/07/13 05:04:24;;;;;;;4.10;0.80;;;;;;;17.72;51.48;99344.88;103591;1298;22792;-84
2022/07/13 05:07:07;;;;;;;3.40;0.70;;;;;;;17.78;51.59;99347.23;103676;1298;22608;-81
2022/07/13 05:09:40;;;;;;;5.30;0.80;;;;;;;17.85;51.59;99350.89;103554;1300;24695;-83
2022/07/13 05:12:25;;;;;;;3.70;0.70;;;;;;;17.92;51.58;99354.70;103966;1297;22705;-83
2022/07/13 05:15:10;;;;;;;;;;;;;;;;;;;;;
2022/07/13 05:18:29;;;;;;;5.90;0.90;;;;;;;18.11;51.73;99355.14;103926;1297;25502;-82
2022/07/13 05:21:11;;;;;;;6.10;1.10;;;;;;;18.20;51.72;99356.81;103999;1300;25578;-81
2022/07/13 05:27:30;;;;;;;8.50;1.00;;;;;;;18.39;51.91;99362.84;103492;1300;22723;-79
2022/07/13 05:30:11;;;;;;;5.40;1.00;;;;;;;18.49;51.90;99361.13;103505;1299;26973;-85
2022/07/13 05:32:46;;;;;;;6.50;1.00;;;;;;;18.58;51.93;99355.87;104059;1294;23062;-84
2022/07/13 05:36:00;;;;;;;8.20;0.90;;;;;;;18.69;51.81;99354.24;104229;1294;25365;-83
2022/07/13 05:38:52;;;;;;;10.90;1.10;;;;;;;18.78;51.86;99351.86;104950;1288;22722;-81
2022/07/13 05:41:34;;;;;;;6.10;1.00;;;;;;;18.89;51.87;99353.83;105122;1287;22585;-87
2022/07/13 05:44:10;;;;;;;4.50;1.00;;;;;;;19.04;51.83;99358.20;105178;1287;24420;-85
2022/07/13 05:47:02;;;;;;;6.00;0.90;;;;;;;19.21;51.83;99359.01;105098;1288;25371;-83
2022/07/13 05:49:55;;;;;;;6.40;0.90;;;;;;;19.39;51.73;99358.22;105156;1287;24261;-85
2022/07/13 05:52:34;;;;;;;5.40;1.10;;;;;;;19.57;51.66;99357.45;105117;1287;22839;-83
2022/07/13 05:55:54;;;;;;;7.30;1.00;;;;;;;19.78;51.84;99359.39;105134;1287;25546;-82
2022/07/13 05:58:40;;;;;;;;;;;;;;;;;;;;;
2022/07/13 06:01:32;;;;;;;11.90;1.10;;;;;;;20.03;51.62;99350.38;105172;1287;24244;-83
2022/07/13 06:04:23;;;;;;;13.40;1.10;;;;;;;20.13;51.41;99349.67;105358;1281;22627;-84
2022/07/13 06:07:01;;;;;;;9.90;1.30;;;;;;;20.16;51.46;99351.57;105679;1281;22765;-86
2022/07/13 06:09:43;;;;;;;8.90;1.10;;;;;;;20.22;51.55;99350.88;105609;1282;25348;-85
2022/07/13 06:12:15;;;;;;;11.00;1.40;;;;;;;20.28;51.43;99349.06;105680;1277;22538;-83
2022/07/13 06:14:52;;;;;;;6.20;1.10;;;;;;;20.48;51.60;99349.36;105987;1274;22537;-84
2022/07/13 06:17:32;;;;;;;9.80;1.10;;;;;;;20.80;51.32;99356.21;106025;1274;22534;-82
2022/07/13 06:20:03;;;;;;;6.80;1.20;;;;;;;21.09;51.11;99355.16;105751;1274;22560;-85
2022/07/13 06:22:36;;;;;;;6.10;0.90;;;;;;;21.41;51.41;99349.38;106026;1273;22570;-83
2022/07/13 06:25:18;;;;;;;7.20;0.70;;;;;;;21.65;51.37;99345.72;106190;1274;24286;-86
2022/07/13 06:27:55;;;;;;;7.20;1.50;;;;;;;21.74;50.89;99346.02;106036;1274;22546;-84
2022/07/13 06:30:31;;;;;;;6.60;1.20;;;;;;;21.84;51.04;99347.19;106126;1274;22737;-84
2022/07/13 06:33:09;;;;;;;5.20;0.90;;;;;;;22.09;50.92;99347.81;106090;1274;22819;-87
2022/07/13 06:35:42;;;;;;;7.40;0.70;;;;;;;22.39;51.10;99346.48;106151;1274;22729;-88
2022/07/13 06:38:11;;;;;;;9.40;0.80;;;;;;;22.70;50.17;99345.05;106017;1274;22560;-85
2022/07/13 06:40:49;;;;;;;8.20;0.90;;;;;;;22.94;50.43;99349.12;106132;1274;25232;-82
2022/07/13 06:43:23;;;;;;;7.60;0.80;;;;;;;23.31;50.62;99350.83;106144;1274;22554;-82
2022/07/13 06:45:56;;;;;;;2.60;0.60;;;;;;;23.70;50.08;99350.08;106173;1273;22534;-81
2022/07/13 06:48:31;;;;;;;6.20;0.80;;;;;;;23.99;50.10;99348.84;106081;1274;22548;-84
2022/07/13 06:51:14;;;;;;;3.60;1.10;;;;;;;24.26;49.55;99348.98;106087;1274;22538;-85
2022/07/13 06:53:58;;;;;;;;;;;;;;;;;;;;;
2022/07/13 06:56:45;;;;;;;3.80;0.80;;;;;;;23.82;49.63;99354.48;106731;1273;24211;-85
2022/07/13 06:59:15;;;;;;;2.30;0.60;;;;;;;23.70;49.49;99359.56;106007;1274;25341;-84
2022/07/13 07:01:52;;;;;;;3.70;0.70;;;;;;;23.53;49.86;99365.43;106323;1274;22843;-83
2022/07/13 07:04:38;;;;;;;2.50;0.60;;;;;;;23.43;49.56;99360.76;106152;1274;25383;-85
2022/07/13 07:07:30;;;;;;;4.60;0.70;;;;;;;23.33;49.69;99359.13;106167;1274;25311;-85
2022/07/13 07:10:26;;;;;;;3.50;0.70;;;;;;;23.37;49.71;99358.05;106292;1273;24247;-85
2022/07/13 07:12:56;;;;;;;3.80;0.70;;;;;;;23.49;49.33;99356.95;106165;1274;22745;-88
2022/07/13 07:15:28;;;;;;;3.50;0.70;;;;;;;23.57;49.36;99359.09;106262;1274;24358;-90
2022/07/13 07:18:12;;;;;;;;;;;;;;;;;;;;;
2022/07/13 07:24:51;;;;;;;;;;;;;;;;;;;;;
2022/07/13 07:27:48;;;;;;;2.30;0.70;;;;;;;23.97;49.39;99357.67;106296;1274;24296;-89
2022/07/13 07:30:26;;;;;;;2.90;0.70;;;;;;;24.20;49.22;99352.86;106082;1273;22573;-83
2022/07/13 07:33:42;;;;;;;5.30;1.00;;;;;;;24.58;49.02;99349.30;106447;1273;22534;-84
2022/07/13 07:36:28;;;;;;;;;;;;;;;;;;;;;
2022/07/13 07:39:40;;;;;;;2.30;0.80;;;;;;;25.82;48.63;99341.20;106319;1271;24302;-87
2022/07/13 07:42:25;;;;;;;4.60;0.90;;;;;;;26.06;48.38;99339.48;106351;1271;22688;-85
2022/07/13 07:45:46;;;;;;;2.20;0.70;;;;;;;26.05;47.66;99339.98;106470;1274;22806;-90
2022/07/13 07:48:38;;;;;;;;;;;;;;;;;;;;;
2022/07/13 07:55:56;;;;;;;4.30;0.80;;;;;;;24.98;47.95;99359.16;105835;1280;24411;-86
2022/07/13 07:58:48;;;;;;;3.90;1.00;;;;;;;24.87;47.77;99365.85;106282;1271;25240;-87
2022/07/13 08:01:55;;;;;;;;;;;;;;;;;;;;;
2022/07/13 08:08:22;;;;;;;3.80;1.00;;;;;;;24.73;48.69;99357.39;106443;1273;22960;-86
2022/07/13 08:11:03;;;;;;;3.40;1.00;;;;;;;24.65;48.26;99357.05;106076;1274;22948;-83
2022/07/13 08:13:51;;;;;;;3.50;0.90;;;;;;;24.59;48.00;99357.48;106266;1274;22550;-84
2022/07/13 08:16:27;;;;;;;4.50;1.10;;;;;;;24.46;48.04;99353.56;106275;1274;25354;-84
2022/07/13 08:19:10;;;;;;;3.70;1.00;;;;;;;24.45;47.90;99354.27;106259;1274;24362;-84
2022/07/13 08:22:22;;;;;;;3.00;1.20;;;;;;;24.46;48.10;99349.79;106216;1274;24204;-83
2022/07/13 08:25:32;;;;;;;6.10;1.00;;;;;;;24.65;48.07;99350.46;106555;1274;22537;-79
2022/07/13 08:31:58;;;;;;;4.60;0.90;;;;;;;24.98;47.65;99355.32;106477;1274;22509;-85
2022/07/13 08:40:45;;;;;;;3.70;1.10;;;;;;;24.72;47.11;99361.13;106152;1274;22774;-85
2022/07/13 08:43:27;;;;;;;4.70;1.00;;;;;;;24.75;47.64;99357.75;106209;1274;22537;-84
2022/07/13 08:45:54;;;;;;;3.00;0.80;;;;;;;25.03;47.45;99355.09;106345;1273;25502;-85
2022/07/13 08:48:31;;;;;;;3.50;0.90;;;;;;;25.24;47.14;99353.44;106324;1274;24377;-84
2022/07/13 08:51:58;;;;;;;3.20;0.90;;;;;;;25.27;47.34;99349.05;106531;1274;22641;-84
2022/07/13 08:55:04;;;;;;;;;;;;;;;;;;;;;
2022/07/13 08:59:04;;;;;;;2.50;0.80;;;;;;;25.26;46.49;99343.41;106314;1274;22631;-83
2022/07/13 09:01:35;;;;;;;2.50;0.80;;;;;;;25.34;46.53;99340.23;106376;1273;24283;-84
2022/07/13 09:04:11;;;;;;;3.70;0.80;;;;;;;25.54;46.51;99337.56;106166;1274;22547;-86
2022/07/13 09:06:48;;;;;;;4.10;0.70;;;;;;;25.90;46.50;99337.92;106228;1274;24208;-87
2022/07/13 09:09:33;;;;;;;1.70;0.80;;;;;;;26.19;46.09;99339.04;106609;1273;24238;-88
2022/07/13 09:12:16;;;;;;;1.70;0.70;;;;;;;26.32;45.61;99338.88;106484;1273;22525;-85
2022/07/13 09:15:08;;;;;;;3.60;0.60;;;;;;;26.62;45.70;99331.08;106839;1274;22553;-87
2022/07/13 09:17:50;;;;;;;1.80;0.50;;;;;;;26.87;44.39;99333.14;106200;1274;25398;-83
2022/07/13 09:20:22;;;;;;;1.50;0.50;;;;;;;27.06;45.54;99328.58;106433;1273;25299;-82
2022/07/13 09:23:01;;;;;;;2.50;0.70;;;;;;;27.48;45.69;99328.10;106138;1274;22521;-85
2022/07/13 09:25:29;;;;;;;2.80;0.70;;;;;;;27.85;45.06;99320.54;106145;1274;22531;-84
2022/07/13 09:28:07;;;;;;;2.20;0.70;;;;;;;28.07;44.88;99322.66;106393;1274;25485;-85
2022/07/13 09:31:04;;;;;;;2.00;0.60;;;;;;;28.37;44.62;99323.35;105991;1279;24403;-85
2022/07/13 09:33:43;;;;;;;3.00;0.60;;;;;;;28.42;43.49;99320.88;105862;1280;22784;-86
2022/07/13 09:36:22;;;;;;;2.50;0.60;;;;;;;28.33;43.93;99315.60;105750;1280;22654;-86
2022/07/13 09:39:14;;;;;;;1.60;0.50;;;;;;;28.30;44.12;99321.98;105489;1284;22553;-88
2022/07/13 09:41:49;;;;;;;3.50;0.60;;;;;;;28.30;43.01;99322.41;105370;1284;25333;-86
2022/07/13 09:47:14;;;;;;;2.40;0.60;;;;;;;28.15;43.33;99316.42;105098;1285;25314;-81
2022/07/13 09:49:46;;;;;;;3.10;0.70;;;;;;;28.21;43.89;99307.95;105210;1285;22865;-86
2022/07/13 09:52:29;;;;;;;5.00;0.80;;;;;;;28.52;43.43;99303.55;105533;1285;25495;-84
2022/07/13 09:55:06;;;;;;;4.30;0.90;;;;;;;28.48;43.50;99301.65;105417;1284;25580;-84
2022/07/13 09:57:45;;;;;;;2.90;0.90;;;;;;;28.69;43.33;99301.61;105158;1283;22738;-84
2022/07/13 10:00:20;;;;;;;3.70;0.50;;;;;;;28.85;42.72;99297.94;105609;1282;23886;-85
2022/07/13 10:02:54;;;;;;;4.00;0.70;;;;;;;28.82;42.67;99302.11;105576;1282;25324;-85
2022/07/13 10:05:24;;;;;;;5.20;1.00;;;;;;;28.92;42.94;99299.98;105505;1282;23411;-83
2022/07/13 10:07:55;;;;;;;3.90;0.90;;;;;;;29.16;42.54;99297.34;105606;1280;22532;-87
2022/07/13 10:10:26;;;;;;;4.30;0.90;;;;;;;29.29;42.87;99294.43;105745;1277;25516;-83
2022/07/13 10:13:05;;;;;;;2.50;0.90;;;;;;;29.58;42.69;99292.98;105980;1277;22637;-84
2022/07/13 10:15:32;;;;;;;4.00;0.80;;;;;;;29.77;42.71;99298.73;105919;1277;25646;-82
2022/07/13 10:18:09;;;;;;;2.80;0.60;;;;;;;29.89;42.26;99298.29;106358;1271;22561;-85
2022/07/13 10:20:42;;;;;;;6.00;0.90;;;;;;;29.98;41.85;99295.06;106481;1271;24238;-84
2022/07/13 10:23:12;;;;;;;4.10;0.90;;;;;;;30.30;42.13;99291.84;106492;1271;22617;-82
2022/07/13 10:25:47;;;;;;;3.00;0.50;;;;;;;30.52;41.46;99285.19;106352;1271;22551;-87
2022/07/13 10:28:21;;;;;;;1.60;0.70;;;;;;;30.38;40.04;99291.14;106297;1271;22518;-85
2022/07/13 10:30:51;;;;;;;4.90;0.80;;;;;;;30.11;40.61;99290.54;106251;1271;22701;-83
2022/07/13 10:36:57;;;;;;;4.80;0.80;;;;;;;29.84;39.71;99280.80;106522;1271;22546;-85
2022/07/13 10:39:35;;;;;;;1.20;0.50;;;;;;;29.85;41.04;99275.45;106432;1271;22545;-85
2022/07/13 10:42:11;;;;;;;4.70;0.50;;;;;;;29.97;39.55;99274.28;106436;1271;25234;-88
2022/07/13 10:48:58;;;;;;;2.60;0.40;;;;;;;29.42;39.51;99270.19;105978;1279;22677;-85
2022/07/13 10:51:38;;;;;;;3.10;0.60;;;;;;;29.15;39.52;99272.67;105881;1278;25587;-83
2022/07/13 10:54:13;;;;;;;2.50;0.60;;;;;;;29.09;39.51;99273.09;105808;1279;24245;-83
2022/07/13 10:57:11;;;;;;;2.30;0.60;;;;;;;28.90;38.82;99278.09;106105;1281;25724;-83
2022/07/13 11:03:47;;;;;;;3.30;0.60;;;;;;;28.86;39.08;99265.60;105467;1281;22676;-82
2022/07/13 11:12:40;;;;;;;3.50;0.70;;;;;;;28.52;38.76;99264.23;103659;1309;557746;-86
2022/07/13 11:15:47;;;;;;;2.10;0.60;;;;;;;28.20;38.66;99255.02;104433;1292;24371;-85
2022/07/13 11:18:27;;;;;;;3.40;0.50;;;;;;;27.96;38.91;99249.39;104423;1293;23329;-84
2022/07/13 11:21:05;;;;;;;5.80;1.10;;;;;;;27.88;38.79;99260.86;104468;1293;24276;-87
2022/07/13 11:28:26;;;;;;;4.30;0.90;;;;;;;28.26;39.24;99251.02;104508;1293;23343;-84
2022/07/13 11:30:57;;;;;;;5.60;0.90;;;;;;;28.81;39.42;99243.98;104181;1294;24331;-84
2022/07/13 11:33:27;;;;;;;5.00;1.00;;;;;;;29.31;39.42;99237.66;104613;1294;22659;-84
2022/07/13 11:35:55;;;;;;;4.80;0.80;;;;;;;29.82;39.46;99235.71;104381;1294;25531;-84
2022/07/13 11:38:22;;;;;;;5.30;1.00;;;;;;;30.18;39.44;99231.15;104245;1293;24276;-85
2022/07/13 11:40:51;;;;;;;2.90;0.70;;;;;;;30.24;39.38;99230.15;104281;1295;22601;-83
2022/07/13 11:43:18;;;;;;;3.60;0.80;;;;;;;30.23;38.78;99225.66;104089;1295;22598;-84
2022/07/13 11:45:49;;;;;;;3.10;0.80;;;;;;;30.13;38.16;99221.34;104333;1289;24113;-83
2022/07/13 11:48:18;;;;;;;2.80;0.80;;;;;;;29.81;38.34;99219.60;105018;1289;25612;-85
2022/07/13 11:51:32;;;;;;;3.70;0.90;;;;;;;29.49;38.25;99216.48;104827;1285;22572;-84
2022/07/13 11:55:16;;;;;;;6.10;0.90;;;;;;;29.23;38.47;99216.73;105351;1284;22721;-84
2022/07/13 12:02:27;;;;;;;;;;;;;;;;;;;;;
2022/07/13 12:05:27;;;;;;;5.20;1.10;;;;;;;28.23;38.33;99209.02;105396;1284;25442;-86
2022/07/13 12:08:31;;;;;;;4.80;1.20;;;;;;;28.07;38.39;99209.77;105484;1284;22830;-83
2022/07/13 12:11:35;;;;;;;7.00;2.10;;;;;;;28.01;38.41;99209.04;105377;1284;22550;-84
2022/07/13 12:14:18;;;;;;;4.60;1.50;;;;;;;27.93;38.85;99205.91;105481;1284;24199;-83
2022/07/13 12:17:14;;;;;;;7.20;1.30;;;;;;;27.98;39.14;99203.02;105286;1285;23892;-82
2022/07/13 12:19:41;;;;;;;3.30;0.90;;;;;;;28.02;38.89;99197.67;105275;1284;25488;-84
2022/07/13 12:22:14;;;;;;;4.00;1.20;;;;;;;28.12;38.73;99197.77;105236;1285;25254;-82
2022/07/13 12:25:07;;;;;;;3.50;1.10;;;;;;;28.51;38.52;99198.19;105878;1284;25469;-80
2022/07/13 12:27:34;;;;;;;2.80;1.10;;;;;;;28.93;38.52;99187.98;105222;1284;22579;-84
2022/07/13 12:30:11;;;;;;;3.80;1.00;;;;;;;29.27;38.36;99192.05;105404;1286;22718;-86
2022/07/13 12:36:50;;;;;;;3.80;0.80;;;;;;;30.41;38.12;99187.89;105767;1284;25605;-85
2022/07/13 12:39:40;;;;;;;5.60;1.10;;;;;;;30.63;37.53;99185.42;105576;1283;24292;-87
2022/07/13 12:42:07;;;;;;;4.10;0.90;;;;;;;30.79;37.68;99181.39;105463;1284;22541;-82
2022/07/13 12:44:35;;;;;;;3.60;0.90;;;;;;;30.95;37.45;99180.77;105812;1284;25257;-83
2022/07/13 12:47:08;;;;;;;2.50;0.90;;;;;;;31.15;37.82;99178.09;105632;1284;22547;-86
2022/07/13 12:49:42;;;;;;;3.60;1.00;;;;;;;31.25;35.89;99176.89;105600;1284;22499;-84
2022/07/13 12:52:12;;;;;;;3.80;1.10;;;;;;;31.09;36.58;99176.69;105352;1284;22553;-87
2022/07/13 12:54:46;;;;;;;3.30;1.10;;;;;;;31.16;36.47;99173.20;105462;1284;24245;-85
2022/07/13 12:57:16;;;;;;;4.10;1.00;;;;;;;31.12;36.30;99173.05;105672;1284;23166;-85
2022/07/13 13:00:21;;;;;;;3.70;1.10;;;;;;;31.14;36.64;99166.80;105904;1278;25245;-84
2022/07/13 13:02:53;;;;;;;4.00;0.90;;;;;;;31.23;36.51;99166.04;105588;1283;22712;-89
2022/07/13 13:05:25;;;;;;;4.20;1.10;;;;;;;31.38;36.93;99167.33;105453;1283;25304;-83
2022/07/13 13:07:55;;;;;;;4.10;1.10;;;;;;;31.58;36.43;99159.58;105342;1285;22942;-86
2022/07/13 13:10:29;;;;;;;4.20;1.10;;;;;;;31.47;35.84;99164.69;106033;1279;22588;-84
2022/07/13 13:13:03;;;;;;;3.90;1.10;;;;;;;31.17;35.46;99158.73;106058;1279;25241;-85
2022/07/13 13:15:31;;;;;;;4.40;0.80;;;;;;;31.07;35.77;99163.23;106049;1279;22528;-82
2022/07/13 13:17:58;;;;;;;3.60;1.00;;;;;;;31.18;35.20;99163.33;105896;1279;22617;-83
2022/07/13 13:20:30;;;;;;;3.10;1.20;;;;;;;31.08;35.58;99159.95;105750;1279;22735;-85
2022/07/13 13:23:27;;;;;;;;;;;;;;;;;;;;;
2022/07/13 13:33:36;;;;;;;3.20;1.10;;;;;;;29.70;35.88;99162.69;105946;1277;25280;-84
2022/07/13 13:36:04;;;;;;;4.70;1.20;;;;;;;29.57;36.11;99163.54;105953;1277;24132;-84
2022/07/13 13:38:34;;;;;;;6.80;1.30;;;;;;;29.39;35.86;99167.27;105860;1277;23218;-84
2022/07/13 13:41:04;;;;;;;4.10;1.10;;;;;;;29.17;35.85;99160.67;106084;1279;22614;-85
2022/07/13 13:43:32;;;;;;;5.20;1.20;;;;;;;28.92;35.62;99163.04;105883;1278;22761;-86
2022/07/13 13:46:08;;;;;;;6.90;1.50;;;;;;;28.62;35.99;99164.23;105832;1277;22637;-82
2022/07/13 13:48:37;;;;;;;8.60;1.30;;;;;;;28.64;36.22;99158.77;105852;1278;22562;-84
2022/07/13 13:51:04;;;;;;;4.50;0.80;;;;;;;28.84;36.02;99150.09;105857;1278;24253;-83
2022/07/13 13:53:31;;;;;;;8.40;1.10;;;;;;;29.14;36.11;99148.68;105921;1278;22545;-83
2022/07/13 13:56:01;;;;;;;3.00;0.90;;;;;;;29.66;36.07;99150.29;105674;1278;25468;-83
2022/07/13 13:58:34;;;;;;;4.20;1.20;;;;;;;29.94;35.49;99146.40;105931;1277;22966;-82
2022/07/13 14:01:51;;;;;;;8.00;1.00;;;;;;;30.27;36.13;99145.20;105488;1281;25467;-80
2022/07/13 14:04:26;;;;;;;9.40;1.30;;;;;;;30.47;35.86;99142.80;105569;1281;25216;-85
2022/07/13 14:06:59;;;;;;;5.10;1.10;;;;;;;30.62;35.69;99144.93;105621;1276;22560;-82
2022/07/13 14:09:45;;;;;;;6.90;1.00;;;;;;;30.78;35.81;99145.57;105904;1276;25336;-82
2022/07/13 14:12:15;;;;;;;5.90;1.00;;;;;;;30.84;35.65;99138.48;105809;1276;22579;-82
2022/07/13 14:14:51;;;;;;;3.60;1.00;;;;;;;30.79;35.46;99138.92;105824;1276;23234;-82
2022/07/13 14:17:29;;;;;;;4.40;1.00;;;;;;;30.81;35.30;99134.57;105992;1276;22848;-83
2022/07/13 14:19:56;;;;;;;5.60;1.00;;;;;;;30.82;35.27;99130.02;105995;1276;25312;-82
2022/07/13 14:22:26;;;;;;;2.90;0.90;;;;;;;30.96;35.46;99125.14;105968;1276;25520;-83
2022/07/13 14:24:56;;;;;;;3.40;1.00;;;;;;;31.41;35.86;99116.37;105835;1276;22584;-81
2022/07/13 14:27:27;;;;;;;3.40;0.90;;;;;;;31.87;35.72;99110.41;106098;1276;22540;-83
2022/07/13 14:29:54;;;;;;;3.10;0.90;;;;;;;31.70;35.29;99100.73;106127;1276;22554;-82